This is the latest recevied weather packets stored in our database for station/object KB1LTW-13. If no packets are shown the sender has not sent any weather packets the latest 10 day(s).
| Time | Temp. | Humidity | Pressure | Rain* | Wind** | Luminosity | Snow |
|---|---|---|---|---|---|---|---|
| 1777405287 | 20.56° C | 33% | 1021.2 hPa | 0 mm | - | 239 W/m² | - |
| 1777402880 | 19.44° C | 36% | 1021.5 hPa | 0 mm | - | 293 W/m² | - |
| 1777401078 | 20.56° C | 35% | 1022.1 hPa | 0 mm | - | 432 W/m² | - |
| 1777395083 | 18.89° C | 37% | 1023.1 hPa | 0 mm | - | 734 W/m² | - |
| 1777392682 | 18.33° C | 40% | 1023.2 hPa | 0 mm | - | 780 W/m² | - |
| 1777387885 | 17.22° C | 41% | 1023.7 hPa | 0 mm | - | 741 W/m² | - |
| 1777385484 | 16.11° C | 43% | 1024 hPa | 0 mm | - | 700 W/m² | - |
| 1777378885 | 12.78° C | 50% | 1024.6 hPa | 0 mm | - | 182 W/m² | - |
| 1777372285 | 6.67° C | 73% | 1024.4 hPa | 0 mm | - | 17 W/m² | - |
| 1777370482 | 6.67° C | 73% | 1024.4 hPa | 0 mm | - | 5 W/m² | - |
| 1777367486 | 10° C | 58% | 1024.3 hPa | 0 mm | - | 0 W/m² | - |
| 1777366901 | 10° C | 59% | 1024.5 hPa | 0 mm | - | 0 W/m² | - |
| 1777366281 | 9.44° C | 60% | 1024.3 hPa | 0 mm | - | 0 W/m² | - |
| 1777365088 | 8.33° C | 65% | 1024.5 hPa | 0 mm | - | 0 W/m² | - |
| 1777363286 | 9.44° C | 64% | 1024.5 hPa | 0 mm | - | 0 W/m² | - |
| 1777361489 | 10° C | 63% | 1024.2 hPa | 0 mm | - | 0 W/m² | - |
| 1777353681 | 9.44° C | 66% | 1025.1 hPa | 0 mm | - | 0 W/m² | - |
| 1777353076 | 9.44° C | 66% | 1025.2 hPa | 0 mm | - | 0 W/m² | - |
| 1777352483 | 9.44° C | 66% | 1025.3 hPa | 0 mm | - | 0 W/m² | - |
| 1777349476 | 10° C | 63% | 1026.5 hPa | 0 mm | - | 0 W/m² | - |
| 1777348285 | 10° C | 61% | 1026.7 hPa | 0 mm | - | 0 W/m² | - |
| 1777344685 | 11.11° C | 56% | 1027.2 hPa | 0 mm | - | 0 W/m² | - |
| 1777343477 | 11.11° C | 57% | 1027 hPa | 0 mm | - | 0 W/m² | - |
| 1777342305 | 11.67° C | 54% | 1027.4 hPa | 0 mm | - | 0 W/m² | - |
| 1777339284 | 13.33° C | 49% | 1027 hPa | 0 mm | - | 0 W/m² | - |
* Rain latest hour (hover to see other rain measurements)
** Current wind speed in m/s (hover to see current wind gust speed)